createdAt,value
2023-10-18T00:01:05.850Z,6.60
2023-10-18T00:03:37.750Z,7.20
2023-10-18T00:06:16.898Z,7.30
2023-10-18T00:08:47.839Z,7.20
2023-10-18T00:11:19.151Z,7.80
2023-10-18T00:13:54.088Z,7.80
2023-10-18T00:16:24.980Z,7.70
2023-10-18T00:18:55.707Z,7.60
2023-10-18T00:21:26.420Z,8.50
2023-10-18T00:23:57.124Z,7.60
2023-10-18T00:26:27.987Z,7.50
2023-10-18T00:28:58.640Z,8.30
2023-10-18T00:31:29.352Z,7.90
2023-10-18T00:34:00.159Z,7.30
2023-10-18T00:36:31.663Z,8.10
2023-10-18T00:39:15.762Z,7.20
2023-10-18T00:41:46.409Z,6.90
2023-10-18T00:44:17.247Z,7.90
2023-10-18T00:46:48.286Z,8.00
2023-10-18T00:49:20.188Z,7.90
2023-10-18T00:51:51.754Z,7.50
2023-10-18T00:54:22.881Z,7.70
2023-10-18T00:56:53.733Z,6.90
2023-10-18T00:59:27.786Z,7.70
2023-10-18T01:01:59.832Z,7.80
2023-10-18T01:04:32.293Z,8.20
2023-10-18T01:07:12.748Z,8.10
2023-10-18T01:09:49.101Z,7.20
2023-10-18T01:12:20.330Z,7.20
2023-10-18T01:14:51.077Z,8.10
2023-10-18T01:17:22.503Z,7.50
2023-10-18T01:19:54.376Z,6.40
2023-10-18T01:22:25.285Z,6.70
2023-10-18T01:24:55.967Z,7.10
2023-10-18T01:27:26.540Z,7.00
2023-10-18T01:29:57.212Z,7.50
2023-10-18T01:32:29.904Z,7.40
2023-10-18T01:35:02.094Z,6.70
2023-10-18T01:37:33.170Z,7.10
2023-10-18T01:40:21.561Z,6.70
2023-10-18T01:42:57.404Z,5.60
2023-10-18T01:45:31.459Z,5.40
2023-10-18T01:48:05.648Z,6.30
2023-10-18T01:50:36.611Z,6.20
2023-10-18T01:53:16.907Z,6.80
2023-10-18T01:55:53.019Z,6.60
2023-10-18T01:58:25.798Z,6.60
2023-10-18T02:00:58.440Z,5.20
2023-10-18T02:03:30.220Z,5.40
2023-10-18T02:06:00.929Z,4.60
2023-10-18T02:08:31.457Z,5.40
2023-10-18T02:11:03.276Z,4.10
2023-10-18T02:13:33.867Z,3.90
2023-10-18T02:16:07.404Z,5.00
2023-10-18T02:18:38.511Z,5.50
2023-10-18T02:21:09.756Z,5.10
2023-10-18T02:23:40.448Z,5.30
2023-10-18T02:26:28.735Z,3.90
2023-10-18T02:29:00.535Z,4.30
2023-10-18T02:31:31.775Z,4.30
2023-10-18T02:34:15.159Z,5.10
2023-10-18T02:36:54.311Z,4.60
2023-10-18T02:39:29.546Z,4.90
2023-10-18T02:42:01.022Z,5.30
2023-10-18T02:44:31.548Z,5.50
2023-10-18T02:47:11.582Z,6.00
2023-10-18T02:49:42.181Z,5.90
2023-10-18T02:52:18.898Z,5.60
2023-10-18T02:54:52.653Z,5.40
2023-10-18T02:57:25.371Z,5.80
2023-10-18T02:59:58.063Z,5.90
2023-10-18T03:02:28.656Z,6.70
2023-10-18T03:05:00.154Z,5.50
2023-10-18T03:07:31.517Z,5.90
2023-10-18T03:10:12.614Z,4.80
2023-10-18T03:12:45.989Z,4.40
2023-10-18T03:15:19.462Z,5.50
2023-10-18T03:17:51.102Z,6.00
2023-10-18T03:20:24.106Z,6.40
2023-10-18T03:22:56.757Z,6.20
2023-10-18T03:25:29.055Z,6.40
2023-10-18T03:28:05.177Z,6.60
2023-10-18T03:30:47.951Z,6.80
2023-10-18T03:33:20.769Z,7.00
2023-10-18T03:36:20.982Z,7.00
2023-10-18T03:38:56.240Z,5.20
2023-10-18T03:41:27.433Z,6.80
2023-10-18T03:44:04.816Z,6.30
2023-10-18T03:46:48.632Z,5.90
2023-10-18T03:49:32.303Z,6.00
2023-10-18T03:52:17.930Z,6.20
2023-10-18T03:55:05.846Z,5.80
2023-10-18T04:00:27.441Z,5.30
2023-10-18T04:03:00.573Z,5.80
2023-10-18T04:05:39.295Z,6.50
2023-10-18T04:08:14.361Z,6.20
2023-10-18T04:10:45.375Z,6.70
2023-10-18T04:13:16.331Z,7.00
2023-10-18T04:15:48.050Z,6.30
2023-10-18T04:18:27.503Z,6.30
2023-10-18T04:21:00.867Z,6.70
2023-10-18T04:23:31.422Z,6.20
2023-10-18T04:26:04.900Z,7.00
2023-10-18T04:28:38.790Z,7.40
2023-10-18T04:31:13.102Z,7.50
2023-10-18T04:33:44.911Z,7.00
2023-10-18T04:36:17.745Z,6.10
2023-10-18T04:38:49.176Z,6.50
2023-10-18T04:41:29.508Z,6.90
2023-10-18T04:44:06.412Z,6.40
2023-10-18T04:46:38.640Z,7.00
2023-10-18T04:49:24.461Z,6.60
2023-10-18T04:51:57.521Z,7.00
2023-10-18T04:54:38.503Z,7.40
2023-10-18T04:57:12.157Z,6.30
2023-10-18T04:59:47.645Z,7.40
2023-10-18T05:02:27.520Z,7.10
2023-10-18T05:04:58.938Z,7.20
2023-10-18T05:07:43.190Z,6.90
2023-10-18T05:10:18.032Z,6.70
2023-10-18T05:13:02.815Z,6.60
2023-10-18T05:15:34.527Z,7.20
2023-10-18T05:18:07.263Z,7.90
2023-10-18T05:20:47.794Z,6.70
2023-10-18T05:23:23.304Z,6.90
2023-10-18T05:26:10.032Z,6.80
2023-10-18T05:28:50.719Z,7.00
2023-10-18T05:31:39.428Z,6.90
2023-10-18T05:34:19.951Z,6.90
2023-10-18T05:37:15.139Z,7.40
2023-10-18T05:40:11.837Z,8.60
2023-10-18T05:42:47.304Z,7.20
2023-10-18T05:45:18.252Z,7.30
2023-10-18T05:47:55.381Z,7.50
2023-10-18T05:50:26.745Z,8.20
2023-10-18T05:53:00.169Z,7.10
2023-10-18T05:55:32.015Z,7.50
2023-10-18T05:58:06.087Z,7.40
2023-10-18T06:00:37.459Z,7.30
2023-10-18T06:03:10.963Z,7.40
2023-10-18T06:05:43.126Z,7.50
2023-10-18T06:08:15.363Z,7.60
2023-10-18T06:10:50.524Z,8.90
2023-10-18T06:13:23.378Z,7.50
2023-10-18T06:15:54.461Z,7.50
2023-10-18T06:18:32.158Z,8.50
2023-10-18T06:23:39.502Z,6.60
2023-10-18T06:26:27.335Z,7.20
2023-10-18T06:31:41.309Z,6.20
2023-10-18T06:34:16.970Z,6.60
2023-10-18T06:36:48.912Z,7.20
2023-10-18T06:39:29.109Z,7.40
2023-10-18T06:42:00.180Z,6.20
2023-10-18T06:44:31.794Z,7.30
2023-10-18T06:47:07.431Z,7.10
2023-10-18T06:49:38.157Z,7.20
2023-10-18T06:52:10.325Z,8.50
2023-10-18T06:54:41.336Z,7.70
2023-10-18T06:57:17.600Z,7.50
2023-10-18T06:59:51.357Z,8.70
2023-10-18T07:02:28.532Z,7.90
2023-10-18T07:05:01.937Z,8.60
2023-10-18T07:07:34.417Z,7.90
2023-10-18T07:10:07.008Z,8.10
2023-10-18T07:12:48.938Z,8.60
2023-10-18T07:15:24.325Z,8.40
2023-10-18T07:17:56.615Z,8.70
2023-10-18T07:20:33.735Z,8.30
2023-10-18T07:23:06.342Z,8.10
2023-10-18T07:25:38.786Z,8.40
2023-10-18T07:28:10.852Z,8.30
2023-10-18T07:30:46.014Z,8.90
2023-10-18T07:33:16.829Z,8.80
2023-10-18T07:35:47.514Z,8.00
2023-10-18T07:38:26.899Z,8.60
2023-10-18T07:41:01.417Z,9.90
2023-10-18T07:43:33.754Z,8.60
2023-10-18T07:46:10.828Z,7.80
2023-10-18T07:48:47.770Z,9.10
2023-10-18T07:51:35.727Z,9.50
2023-10-18T07:54:06.757Z,9.30
2023-10-18T07:56:41.862Z,10.20
2023-10-18T07:59:31.764Z,9.90
2023-10-18T08:02:11.307Z,8.50
2023-10-18T08:04:44.886Z,9.30
2023-10-18T08:07:22.098Z,9.90
2023-10-18T08:09:55.318Z,9.80
2023-10-18T08:12:34.251Z,10.40
2023-10-18T08:15:14.906Z,10.60
2023-10-18T08:17:46.211Z,9.70
2023-10-18T08:20:40.050Z,11.60
2023-10-18T08:23:35.720Z,11.10
2023-10-18T08:26:06.545Z,11.20
2023-10-18T08:28:42.852Z,12.20
2023-10-18T08:31:33.655Z,11.40
2023-10-18T08:34:07.436Z,11.00
2023-10-18T08:36:39.706Z,10.90
2023-10-18T08:39:10.448Z,11.50
2023-10-18T08:41:53.787Z,12.30
2023-10-18T08:44:26.300Z,11.90
2023-10-18T08:47:05.452Z,12.10
2023-10-18T08:49:45.158Z,11.00
2023-10-18T08:52:21.621Z,11.00
2023-10-18T08:54:53.923Z,11.30
2023-10-18T08:57:35.746Z,11.10
2023-10-18T09:00:40.211Z,11.30
2023-10-18T09:03:11.776Z,11.00
2023-10-18T09:05:42.837Z,11.90
2023-10-18T09:08:20.483Z,11.00
2023-10-18T09:10:55.859Z,10.90
2023-10-18T09:13:38.745Z,11.10
2023-10-18T09:16:13.732Z,11.80
2023-10-18T09:18:44.426Z,11.60
2023-10-18T09:21:20.128Z,10.50
2023-10-18T09:24:00.482Z,10.50
2023-10-18T09:26:41.821Z,10.20
2023-10-18T09:29:12.992Z,9.90
2023-10-18T09:31:54.243Z,10.00
2023-10-18T09:34:35.049Z,10.50
2023-10-18T09:37:12.634Z,10.90
2023-10-18T09:39:45.404Z,10.20
2023-10-18T09:42:16.891Z,9.70
2023-10-18T09:44:48.845Z,10.00
2023-10-18T09:47:24.998Z,9.20
2023-10-18T09:49:59.030Z,8.80
2023-10-18T09:52:33.428Z,9.70
2023-10-18T09:55:07.727Z,9.80
2023-10-18T09:57:41.880Z,10.10
2023-10-18T10:00:14.685Z,9.20
2023-10-18T10:02:53.955Z,9.30
2023-10-18T10:05:26.762Z,9.10
2023-10-18T10:08:01.621Z,9.10
2023-10-18T10:10:45.871Z,9.00
2023-10-18T10:13:20.911Z,9.10
2023-10-18T10:15:57.297Z,9.30
2023-10-18T10:18:35.087Z,8.20
2023-10-18T10:23:39.388Z,7.90
2023-10-18T10:26:28.858Z,7.90
2023-10-18T10:29:27.056Z,6.90
2023-10-18T10:32:06.254Z,7.80
2023-10-18T10:34:39.258Z,7.40
2023-10-18T10:37:19.940Z,7.20
2023-10-18T10:39:51.960Z,7.40
2023-10-18T10:42:44.459Z,7.90
2023-10-18T10:45:36.351Z,7.20
2023-10-18T10:48:33.094Z,6.60
2023-10-18T10:51:13.326Z,7.50
2023-10-18T10:53:47.577Z,6.50
2023-10-18T10:56:21.026Z,6.30
2023-10-18T10:59:04.283Z,6.50
2023-10-18T11:02:12.211Z,6.50
2023-10-18T11:04:59.260Z,5.90
2023-10-18T11:07:30.615Z,6.00
2023-10-18T11:10:07.836Z,6.40
2023-10-18T11:12:39.136Z,6.50
2023-10-18T11:15:17.434Z,6.00
2023-10-18T11:17:50.930Z,6.20
2023-10-18T11:20:31.175Z,6.40
2023-10-18T11:23:02.084Z,5.60
2023-10-18T11:25:34.941Z,6.90
2023-10-18T11:28:29.824Z,6.50
2023-10-18T11:31:03.718Z,6.90
2023-10-18T11:33:48.107Z,6.50
2023-10-18T11:36:20.598Z,6.20
2023-10-18T11:39:20.015Z,6.50
2023-10-18T11:41:54.599Z,6.00
2023-10-18T11:44:34.220Z,6.10
2023-10-18T11:47:13.262Z,6.20
2023-10-18T11:49:45.047Z,6.10
2023-10-18T11:52:23.140Z,6.30
2023-10-18T11:54:54.498Z,6.40
2023-10-18T11:57:31.260Z,6.00
2023-10-18T12:00:16.266Z,5.90
2023-10-18T12:02:47.282Z,5.60
2023-10-18T12:05:24.669Z,5.80
2023-10-18T12:07:56.101Z,5.60
2023-10-18T12:10:36.027Z,5.90
2023-10-18T12:13:13.181Z,6.00
2023-10-18T12:15:44.026Z,5.70
2023-10-18T12:18:15.318Z,5.50
2023-10-18T12:20:45.995Z,5.50
2023-10-18T12:23:19.876Z,5.70
2023-10-18T12:25:51.538Z,5.40
2023-10-18T12:28:29.144Z,5.90
2023-10-18T12:31:02.510Z,5.50
2023-10-18T12:33:35.931Z,5.30
2023-10-18T12:36:09.044Z,5.50
2023-10-18T12:38:40.397Z,5.70
2023-10-18T12:41:19.681Z,5.10
2023-10-18T12:43:53.071Z,4.80
2023-10-18T12:46:24.135Z,4.70
2023-10-18T12:48:55.251Z,5.10
2023-10-18T12:51:32.094Z,5.10
2023-10-18T12:54:05.527Z,5.40
2023-10-18T12:56:38.925Z,5.20
2023-10-18T12:59:25.838Z,5.40
2023-10-18T13:02:01.322Z,4.80
2023-10-18T13:04:31.895Z,4.50
2023-10-18T13:07:19.746Z,4.60
2023-10-18T13:09:50.553Z,4.70
2023-10-18T13:12:25.221Z,4.80
2023-10-18T13:14:58.461Z,4.80
2023-10-18T13:17:33.506Z,5.70
2023-10-18T13:20:07.407Z,5.70
2023-10-18T13:22:38.024Z,4.90
2023-10-18T13:25:10.469Z,5.40
2023-10-18T13:27:43.389Z,5.20
2023-10-18T13:30:33.140Z,5.80
2023-10-18T13:33:12.408Z,5.80
2023-10-18T13:35:45.360Z,5.80
2023-10-18T13:38:17.028Z,5.40
2023-10-18T13:40:48.069Z,5.70
2023-10-18T13:43:20.700Z,5.50
2023-10-18T13:46:01.487Z,5.50
2023-10-18T13:48:32.283Z,6.00
2023-10-18T13:51:03.590Z,6.60
2023-10-18T13:53:34.593Z,6.10
2023-10-18T13:56:05.705Z,6.20
2023-10-18T13:58:36.955Z,6.30
2023-10-18T14:01:08.159Z,6.20
2023-10-18T14:03:43.786Z,6.20
2023-10-18T14:06:15.922Z,6.80
2023-10-18T14:08:48.980Z,6.80
2023-10-18T14:11:20.738Z,6.90
2023-10-18T14:13:56.263Z,7.10
2023-10-18T14:16:27.139Z,6.80
2023-10-18T14:18:58.206Z,6.60
2023-10-18T14:21:31.005Z,6.80
2023-10-18T14:24:02.269Z,7.00
2023-10-18T14:26:34.638Z,6.60
2023-10-18T14:29:09.762Z,6.80
2023-10-18T14:31:40.928Z,6.50
2023-10-18T14:34:11.888Z,6.30
2023-10-18T14:36:43.293Z,6.50
2023-10-18T14:39:15.386Z,6.20
2023-10-18T14:41:46.416Z,6.70
2023-10-18T14:44:17.178Z,6.70
2023-10-18T14:46:47.853Z,7.30
2023-10-18T14:49:20.279Z,6.20
2023-10-18T14:51:50.915Z,6.50
2023-10-18T14:54:21.584Z,6.90
2023-10-18T14:56:53.170Z,6.10
2023-10-18T14:59:24.982Z,5.80
2023-10-18T15:01:56.325Z,6.30
2023-10-18T15:04:27.419Z,6.10
2023-10-18T15:06:58.066Z,6.00
2023-10-18T15:09:29.501Z,5.50
2023-10-18T15:12:00.385Z,6.10
2023-10-18T15:14:34.046Z,5.60
2023-10-18T15:17:05.086Z,5.40
2023-10-18T15:19:35.987Z,6.10
2023-10-18T15:22:06.752Z,5.50
2023-10-18T15:24:41.692Z,5.00
2023-10-18T15:27:16.585Z,5.60
2023-10-18T15:29:47.972Z,5.60
2023-10-18T15:32:18.598Z,5.50
2023-10-18T15:34:49.370Z,5.50
2023-10-18T15:37:20.497Z,5.10
2023-10-18T15:39:51.105Z,5.10
2023-10-18T15:42:24.580Z,5.00
2023-10-18T15:44:57.351Z,5.20
2023-10-18T15:47:28.198Z,5.40
2023-10-18T15:49:59.785Z,5.70
2023-10-18T15:52:31.534Z,5.00
2023-10-18T15:55:02.102Z,4.90
2023-10-18T15:57:32.769Z,5.00
2023-10-18T16:00:08.936Z,5.00
2023-10-18T16:02:39.776Z,5.80
2023-10-18T16:05:11.748Z,5.50
2023-10-18T16:07:42.465Z,5.20
2023-10-18T16:10:14.032Z,5.50
2023-10-18T16:12:46.587Z,5.00
2023-10-18T16:15:21.544Z,5.40
2023-10-18T16:17:52.639Z,5.10
2023-10-18T16:20:25.438Z,5.20
2023-10-18T16:22:57.327Z,5.70
2023-10-18T16:25:27.997Z,5.40
2023-10-18T16:27:58.549Z,5.60
2023-10-18T16:30:30.217Z,5.70
2023-10-18T16:33:01.497Z,5.80
2023-10-18T16:35:32.873Z,5.70
2023-10-18T16:38:05.335Z,5.60
2023-10-18T16:40:36.379Z,5.70
2023-10-18T16:43:07.411Z,5.60
2023-10-18T16:45:41.541Z,6.30
2023-10-18T16:48:12.570Z,6.20
2023-10-18T16:50:43.958Z,7.30
2023-10-18T16:53:14.886Z,7.00
2023-10-18T16:55:53.680Z,7.90
2023-10-18T16:58:24.273Z,9.00
2023-10-18T17:01:01.076Z,8.80
2023-10-18T17:03:33.379Z,7.20
2023-10-18T17:06:07.284Z,7.20
2023-10-18T17:08:38.406Z,6.80
2023-10-18T17:11:11.399Z,8.80
2023-10-18T17:13:44.250Z,6.70
2023-10-18T17:16:16.072Z,6.70
2023-10-18T17:18:46.876Z,6.40
2023-10-18T17:21:20.677Z,7.20
2023-10-18T17:23:52.431Z,8.30
2023-10-18T17:26:23.118Z,6.30
2023-10-18T17:28:54.239Z,7.00
2023-10-18T17:31:25.212Z,5.80
2023-10-18T17:33:56.098Z,6.80
2023-10-18T17:36:27.525Z,8.60
2023-10-18T17:38:58.957Z,5.60
2023-10-18T17:41:29.752Z,7.00
2023-10-18T17:44:00.405Z,8.20
2023-10-18T17:46:31.254Z,6.50
2023-10-18T17:49:02.090Z,9.90
2023-10-18T17:51:32.875Z,9.60
2023-10-18T17:54:04.530Z,10.10
2023-10-18T17:56:35.192Z,7.20
2023-10-18T17:59:10.882Z,7.70
2023-10-18T18:01:42.538Z,7.10
2023-10-18T18:04:14.402Z,9.30
2023-10-18T18:06:48.007Z,7.90
2023-10-18T18:09:23.900Z,7.70
2023-10-18T18:11:54.997Z,7.10
2023-10-18T18:14:25.982Z,6.40
2023-10-18T18:16:56.764Z,6.30
2023-10-18T18:19:27.385Z,6.40
2023-10-18T18:21:58.042Z,6.40
2023-10-18T18:24:28.800Z,6.30
2023-10-18T18:26:59.467Z,6.90
2023-10-18T18:29:30.106Z,7.10
2023-10-18T18:32:00.866Z,7.30
2023-10-18T18:34:32.109Z,7.80
2023-10-18T18:37:03.017Z,9.60
2023-10-18T18:39:35.825Z,7.10
2023-10-18T18:42:08.021Z,8.10
2023-10-18T18:44:39.980Z,7.90
2023-10-18T18:47:10.840Z,7.50
2023-10-18T18:49:42.245Z,7.50
2023-10-18T18:52:12.956Z,7.10
2023-10-18T18:54:43.849Z,7.20
2023-10-18T18:57:14.443Z,6.00
2023-10-18T18:59:45.108Z,7.50
2023-10-18T19:02:15.767Z,8.90
2023-10-18T19:04:46.630Z,10.80
2023-10-18T19:07:17.541Z,12.10
2023-10-18T19:09:48.271Z,12.80
2023-10-18T19:12:22.346Z,11.60
2023-10-18T19:14:54.208Z,8.20
2023-10-18T19:17:24.875Z,8.80
2023-10-18T19:19:55.482Z,10.20
2023-10-18T19:22:26.085Z,9.20
2023-10-18T19:24:56.660Z,7.30
2023-10-18T19:27:27.262Z,7.30
2023-10-18T19:29:57.838Z,13.50
2023-10-18T19:32:28.402Z,9.80
2023-10-18T19:34:59.713Z,8.30
2023-10-18T19:37:32.296Z,6.70
2023-10-18T19:40:05.977Z,7.60
2023-10-18T19:42:37.008Z,6.70
2023-10-18T19:45:10.672Z,7.30
2023-10-18T19:47:41.827Z,7.00
2023-10-18T19:50:13.347Z,6.70
2023-10-18T19:52:44.781Z,6.90
2023-10-18T19:55:16.673Z,7.10
2023-10-18T19:57:47.181Z,8.40
2023-10-18T20:00:19.289Z,8.20
2023-10-18T20:02:50.134Z,8.50
2023-10-18T20:05:21.265Z,9.00
2023-10-18T20:07:52.556Z,7.10
2023-10-18T20:10:23.175Z,7.00
2023-10-18T20:12:53.996Z,7.10
2023-10-18T20:15:25.343Z,7.00
2023-10-18T20:17:57.240Z,6.20
2023-10-18T20:20:28.023Z,6.30
2023-10-18T20:23:01.168Z,6.50
2023-10-18T20:25:31.806Z,6.80
2023-10-18T20:28:02.426Z,6.80
2023-10-18T20:30:33.387Z,7.70
2023-10-18T20:33:04.312Z,7.00
2023-10-18T20:35:35.011Z,6.70
2023-10-18T20:38:05.841Z,7.00
2023-10-18T20:40:37.804Z,6.50
2023-10-18T20:43:08.750Z,7.00
2023-10-18T20:45:39.877Z,7.20
2023-10-18T20:48:12.368Z,7.00
2023-10-18T20:50:43.970Z,6.90
2023-10-18T20:53:16.971Z,7.00
2023-10-18T20:55:48.342Z,6.90
2023-10-18T20:58:23.584Z,6.50
2023-10-18T21:00:54.229Z,6.50
2023-10-18T21:03:25.742Z,6.70
2023-10-18T21:06:01.138Z,6.80
2023-10-18T21:08:34.691Z,6.70
2023-10-18T21:11:10.217Z,6.40
2023-10-18T21:13:41.706Z,6.70
2023-10-18T21:16:13.967Z,7.00
2023-10-18T21:18:45.997Z,6.80
2023-10-18T21:21:17.070Z,6.60
2023-10-18T21:23:47.869Z,6.90
2023-10-18T21:26:18.881Z,6.90
2023-10-18T21:28:50.703Z,7.80
2023-10-18T21:31:21.533Z,7.30
2023-10-18T21:33:53.005Z,6.50
2023-10-18T21:36:23.685Z,6.90
2023-10-18T21:38:54.919Z,6.60
2023-10-18T21:41:26.774Z,7.00
2023-10-18T21:43:58.313Z,7.20
2023-10-18T21:46:29.059Z,7.30
2023-10-18T21:49:00.092Z,7.20
2023-10-18T21:51:30.792Z,7.20
2023-10-18T21:54:01.360Z,7.10
2023-10-18T21:56:34.837Z,7.10
2023-10-18T21:59:06.839Z,7.10
2023-10-18T22:01:45.094Z,6.70
2023-10-18T22:04:16.939Z,7.70
2023-10-18T22:06:47.915Z,7.20
2023-10-18T22:09:32.712Z,7.20
2023-10-18T22:12:04.888Z,7.50
2023-10-18T22:14:37.206Z,8.40
2023-10-18T22:17:15.718Z,7.70
2023-10-18T22:19:52.338Z,7.40
2023-10-18T22:22:23.574Z,7.70
2023-10-18T22:24:54.324Z,8.20
2023-10-18T22:27:26.410Z,7.80
2023-10-18T22:29:57.761Z,7.50
2023-10-18T22:32:29.938Z,7.80
2023-10-18T22:35:01.061Z,7.10
2023-10-18T22:37:31.793Z,7.30
2023-10-18T22:40:06.198Z,7.50
2023-10-18T22:42:41.104Z,7.70
2023-10-18T22:45:25.921Z,7.60
2023-10-18T22:48:00.417Z,7.40
2023-10-18T22:50:39.240Z,8.00
2023-10-18T22:53:19.300Z,8.00
2023-10-18T22:55:57.847Z,7.90
2023-10-18T22:58:31.102Z,8.20
2023-10-18T23:01:04.358Z,7.10
2023-10-18T23:03:35.157Z,8.20
2023-10-18T23:06:11.574Z,8.20
2023-10-18T23:08:42.465Z,7.60
2023-10-18T23:11:34.178Z,7.40
2023-10-18T23:14:10.347Z,8.20
2023-10-18T23:16:58.868Z,8.10
2023-10-18T23:19:37.386Z,7.80
2023-10-18T23:22:33.043Z,8.00
2023-10-18T23:25:17.746Z,8.40
2023-10-18T23:28:06.331Z,7.40
2023-10-18T23:30:40.902Z,7.60
2023-10-18T23:33:26.178Z,8.10
2023-10-18T23:35:58.150Z,8.30
2023-10-18T23:38:38.088Z,8.70
2023-10-18T23:41:11.200Z,8.20
2023-10-18T23:43:50.542Z,8.80
2023-10-18T23:46:37.881Z,8.10
2023-10-18T23:52:31.864Z,8.20
2023-10-18T23:55:12.494Z,8.70
2023-10-18T23:57:47.842Z,9.00
